KCRG/CRG METAR and TAF weather

Enter ICAO airport designator
Station Type Date Time Source
KCRG METAR 2019/06/26 21:53 UTC NOAA

KCRG 262153Z 09008KT 10SM CLR 31/21 A3008 RMK AO2 SLP184 T03110206


Station Type Date Time Source
KCRG Decoded METAR 2019/06/26 21:53 UTC NOAA

JACKSONVILLE CRAIG MUN, FL, United States (KCRG) 30-20N 81-31W 13M
Jun 26, 2019 - 05:53 PM EDT / 2019.06.26 2153 UTC
Wind: from the E (090 degrees) at 9 MPH (8 KT):0
Visibility: 10 mile(s):0
Sky conditions: clear
Temperature: 88.0 F (31.1 C)
Dew Point: 69.1 F (20.6 C)
Relative Humidity: 53%
Pressure (altimeter): 30.08 in. Hg (1018 hPa)
ob: KCRG 262153Z 09008KT 10SM CLR 31/21 A3008 RMK AO2 SLP184 T03110206
cycle: 22

Station Type Date Time Source
KCRG TAF 2019/06/26 18:57 UTC NOAA

TAF
AMD KCRG 261757Z 2618/2718 08009G16KT P6SM SCT040 SCT250
FM262000 08010KT P6SM SCT050 SCT250
FM262300 09006KT P6SM SCT250
FM270500 VRB02KT P6SM SCT250
FM271400 05008KT P6SM SCT030 SCT250

Example: see airport list